Time;durP1;ratioP1;P1;durP2;ratioP2;P2;SDS_P1;SDS_P2;PMS_P1;PMS_P2;Temp;Humidity;BMP_temperature;BMP_pressure;BME280_temperature;BME280_humidity;BME280_pressure;Samples;Min_cycle;Max_cycle;Signal;HPM_P1;HPM_P2
2023/12/16 00:01:21;;;;;;;0.60;0.60;;;7.60;99.90;;;;;;5017121;28;20203;-78
2023/12/16 00:03:48;;;;;;;0.50;0.40;;;7.60;99.90;;;;;;5017111;28;20212;-79
2023/12/16 00:06:18;;;;;;;1.02;0.73;;;7.60;99.90;;;;;;5017155;28;20200;-80
2023/12/16 00:08:46;;;;;;;1.30;0.60;;;7.60;99.90;;;;;;5017695;28;20228;-80
2023/12/16 00:11:13;;;;;;;0.50;0.40;;;7.60;99.90;;;;;;5017057;28;20225;-80
2023/12/16 00:13:40;;;;;;;0.93;0.85;;;7.60;99.90;;;;;;5017157;28;20223;-79
2023/12/16 00:16:07;;;;;;;0.50;0.40;;;7.60;99.90;;;;;;5016779;28;20381;-80
2023/12/16 00:18:36;;;;;;;0.50;0.50;;;7.60;99.90;;;;;;5017781;28;20196;-80
2023/12/16 00:21:02;;;;;;;0.50;0.40;;;7.60;99.90;;;;;;5017141;28;20189;-80
2023/12/16 00:23:29;;;;;;;0.50;0.50;;;7.60;99.90;;;;;;5016884;28;20227;-80
2023/12/16 00:25:58;;;;;;;0.50;0.40;;;7.60;99.90;;;;;;5016537;28;20189;-79
2023/12/16 00:28:24;;;;;;;0.50;0.50;;;7.60;99.90;;;;;;5016685;28;20201;-80
2023/12/16 00:30:51;;;;;;;0.50;0.40;;;7.60;99.90;;;;;;5016835;28;20212;-79
2023/12/16 00:33:19;;;;;;;0.50;0.50;;;7.60;99.90;;;;;;5016788;28;20223;-80
2023/12/16 00:35:46;;;;;;;0.50;0.50;;;7.60;99.90;;;;;;5016636;28;20197;-80
2023/12/16 00:38:12;;;;;;;0.82;0.82;;;7.50;99.90;;;;;;4999737;28;20209;-79
2023/12/16 00:40:39;;;;;;;0.50;0.40;;;7.50;99.90;;;;;;4997294;28;20189;-80
2023/12/16 00:43:08;;;;;;;0.82;0.80;;;7.50;99.90;;;;;;4996900;28;20644;-80
2023/12/16 00:45:35;;;;;;;0.98;0.88;;;7.50;99.90;;;;;;4996645;28;20197;-79
2023/12/16 00:48:01;;;;;;;0.70;0.70;;;7.50;99.90;;;;;;4997107;28;20197;-80
2023/12/16 00:50:28;;;;;;;0.50;0.40;;;7.50;99.90;;;;;;4996840;28;20225;-80
2023/12/16 00:52:55;;;;;;;1.08;1.08;;;7.50;99.90;;;;;;4996887;28;20209;-80
2023/12/16 00:55:22;;;;;;;3.15;1.17;;;7.50;99.90;;;;;;4995743;28;20197;-80
2023/12/16 00:57:48;;;;;;;0.50;0.40;;;7.50;99.90;;;;;;5001362;28;20651;-79
2023/12/16 01:00:17;;;;;;;0.82;0.82;;;7.50;99.90;;;;;;5015789;28;20199;-81
2023/12/16 01:02:45;;;;;;;5.57;1.05;;;7.50;99.90;;;;;;5018213;28;20596;-79
2023/12/16 01:05:12;;;;;;;0.50;0.40;;;7.50;99.90;;;;;;5018623;28;20807;-79
2023/12/16 01:07:38;;;;;;;1.08;0.98;;;7.50;99.90;;;;;;5016185;28;20196;-79
2023/12/16 01:10:06;;;;;;;0.50;0.40;;;7.50;99.90;;;;;;5016116;28;20213;-78
2023/12/16 01:12:33;;;;;;;0.50;0.40;;;7.50;99.90;;;;;;5015870;28;20295;-81
2023/12/16 01:15:00;;;;;;;0.50;0.40;;;7.60;99.90;;;;;;5015849;28;20656;-81
2023/12/16 01:17:28;;;;;;;0.50;0.40;;;7.50;99.90;;;;;;5017264;28;20623;-79
2023/12/16 01:19:55;;;;;;;0.50;0.50;;;7.60;99.90;;;;;;5013236;28;20196;-80
2023/12/16 01:22:21;;;;;;;0.50;0.40;;;7.60;99.90;;;;;;5015447;28;20355;-80
2023/12/16 01:24:48;;;;;;;6.30;1.33;;;7.60;99.90;;;;;;5015526;28;20283;-80
2023/12/16 01:27:15;;;;;;;1.33;1.33;;;7.60;99.90;;;;;;5015342;28;20223;-80
2023/12/16 01:29:42;;;;;;;1.15;1.05;;;7.60;99.90;;;;;;5015464;28;20212;-80
2023/12/16 01:32:08;;;;;;;1.30;0.60;;;7.60;99.90;;;;;;5015571;28;20201;-80
2023/12/16 01:34:36;;;;;;;0.77;0.70;;;7.60;99.90;;;;;;5014722;28;20307;-80
2023/12/16 01:37:04;;;;;;;0.60;0.60;;;7.60;99.90;;;;;;5014989;28;20195;-80
2023/12/16 01:39:30;;;;;;;1.50;1.15;;;7.60;99.90;;;;;;5012939;28;20271;-80
2023/12/16 01:41:57;;;;;;;0.50;0.40;;;7.60;99.90;;;;;;4995753;28;20215;-80
2023/12/16 01:44:24;;;;;;;0.50;0.50;;;7.60;99.90;;;;;;4995404;28;20216;-80
2023/12/16 01:46:51;;;;;;;0.50;0.40;;;7.60;99.90;;;;;;4995910;28;20200;-80
2023/12/16 01:49:18;;;;;;;0.50;0.40;;;7.60;99.90;;;;;;4996568;28;20189;-80
2023/12/16 01:51:47;;;;;;;0.65;0.65;;;7.60;99.90;;;;;;4996458;28;20195;-80
2023/12/16 01:54:14;;;;;;;0.70;0.70;;;7.50;99.90;;;;;;4996186;28;20208;-80
2023/12/16 01:56:41;;;;;;;0.50;0.40;;;7.50;99.90;;;;;;4995271;28;20664;-80
2023/12/16 01:59:08;;;;;;;1.05;0.95;;;7.50;99.90;;;;;;4995562;28;20200;-80
2023/12/16 02:01:35;;;;;;;4.72;2.20;;;7.50;99.90;;;;;;4995495;28;20598;-80
2023/12/16 02:04:01;;;;;;;0.65;0.50;;;7.40;99.90;;;;;;4995321;28;20213;-80
2023/12/16 02:06:28;;;;;;;3.33;2.05;;;7.40;99.90;;;;;;4994966;28;20201;-80
2023/12/16 02:08:56;;;;;;;0.73;0.73;;;7.30;99.90;;;;;;4995671;28;20193;-80
2023/12/16 02:11:23;;;;;;;3.50;1.95;;;7.40;99.90;;;;;;4995436;28;20225;-80
2023/12/16 02:13:51;;;;;;;1.88;1.30;;;7.40;99.90;;;;;;4994586;28;20220;-80
2023/12/16 02:16:18;;;;;;;1.45;1.40;;;7.40;99.90;;;;;;4994698;28;20661;-79
2023/12/16 02:18:44;;;;;;;0.50;0.40;;;7.40;99.90;;;;;;5014973;28;20697;-80
2023/12/16 02:21:11;;;;;;;1.95;1.77;;;7.40;99.90;;;;;;5014845;28;20192;-80
2023/12/16 02:23:40;;;;;;;1.13;1.02;;;7.40;99.90;;;;;;5013852;28;20228;-80
2023/12/16 02:26:06;;;;;;;0.60;0.60;;;7.40;99.90;;;;;;5014495;28;20199;-80
2023/12/16 02:28:33;;;;;;;0.70;0.70;;;7.40;99.90;;;;;;5014149;28;20283;-80
2023/12/16 02:31:00;;;;;;;1.60;1.42;;;7.40;99.90;;;;;;5014395;28;20238;-79
2023/12/16 02:33:27;;;;;;;8.65;8.10;;;7.40;99.90;;;;;;5014371;28;20729;-80
2023/12/16 02:35:53;;;;;;;0.55;0.55;;;7.40;99.90;;;;;;5014979;28;20615;-80
2023/12/16 02:38:20;;;;;;;1.23;1.15;;;7.30;99.90;;;;;;5006077;28;20592;-79
2023/12/16 02:40:48;;;;;;;1.88;0.80;;;7.40;99.90;;;;;;4994784;28;20185;-80
2023/12/16 02:43:15;;;;;;;1.48;1.38;;;7.40;99.90;;;;;;4994643;28;20248;-78
2023/12/16 02:45:42;;;;;;;1.58;1.48;;;7.40;99.90;;;;;;4994514;28;20190;-80
2023/12/16 02:48:09;;;;;;;1.77;1.65;;;7.30;99.90;;;;;;4994824;28;20204;-80
2023/12/16 02:50:36;;;;;;;4.43;1.17;;;7.30;99.90;;;;;;4994661;28;20212;-80
2023/12/16 02:53:02;;;;;;;1.00;1.00;;;7.30;99.90;;;;;;4994689;28;20722;-81
2023/12/16 02:55:29;;;;;;;1.40;1.30;;;7.30;99.90;;;;;;4994278;28;20617;-81
2023/12/16 02:57:57;;;;;;;1.40;0.57;;;7.30;99.90;;;;;;4995288;28;20189;-80
2023/12/16 03:00:24;;;;;;;1.23;1.15;;;7.40;99.90;;;;;;4994511;28;20186;-78
2023/12/16 03:02:51;;;;;;;0.50;0.40;;;7.30;99.90;;;;;;4994715;28;20213;-80
2023/12/16 03:05:18;;;;;;;1.55;1.02;;;7.30;99.90;;;;;;4994118;28;20257;-77
2023/12/16 03:07:44;;;;;;;1.00;0.82;;;7.30;99.90;;;;;;4994651;28;20197;-80
2023/12/16 03:10:11;;;;;;;1.58;0.98;;;7.30;99.90;;;;;;4994893;28;20315;-80
2023/12/16 03:12:38;;;;;;;1.73;1.63;;;7.30;99.90;;;;;;4994970;28;20696;-79
2023/12/16 03:15:08;;;;;;;0.75;0.75;;;7.30;99.90;;;;;;4994534;28;20226;-80
2023/12/16 03:17:35;;;;;;;2.25;1.58;;;7.40;99.90;;;;;;4995538;28;20197;-81
2023/12/16 03:20:02;;;;;;;3.00;1.20;;;7.30;99.90;;;;;;4994704;28;20192;-80
2023/12/16 03:22:29;;;;;;;1.98;1.45;;;7.30;99.90;;;;;;4994704;28;20232;-80
2023/12/16 03:24:56;;;;;;;0.50;0.40;;;7.30;99.90;;;;;;4994905;28;20276;-80
2023/12/16 03:27:22;;;;;;;0.50;0.40;;;7.30;99.90;;;;;;4998551;28;20198;-78
2023/12/16 03:29:49;;;;;;;0.80;0.80;;;7.30;99.90;;;;;;4998224;28;20204;-80
2023/12/16 03:32:17;;;;;;;1.73;1.60;;;7.40;99.90;;;;;;5013777;28;20255;-79
2023/12/16 03:34:44;;;;;;;1.17;1.08;;;7.40;99.90;;;;;;5017437;28;20201;-80
2023/12/16 03:37:12;;;;;;;0.60;0.60;;;7.40;99.90;;;;;;5018093;28;20188;-80
2023/12/16 03:39:40;;;;;;;3.15;2.88;;;7.40;99.90;;;;;;5017965;28;20200;-81
2023/12/16 03:42:07;;;;;;;5.53;0.98;;;7.40;99.90;;;;;;5018717;28;20192;-80
2023/12/16 03:44:34;;;;;;;1.20;1.13;;;7.40;99.90;;;;;;5017526;28;20228;-78
2023/12/16 03:47:01;;;;;;;0.50;0.40;;;7.30;99.90;;;;;;5018010;28;20199;-79
2023/12/16 03:49:29;;;;;;;2.35;0.77;;;7.40;99.90;;;;;;5017605;28;20579;-80
2023/12/16 03:51:56;;;;;;;0.80;0.70;;;7.30;99.90;;;;;;5017553;28;20822;-80
2023/12/16 03:54:23;;;;;;;1.08;0.70;;;7.30;99.90;;;;;;5017315;28;20395;-80
2023/12/16 03:56:50;;;;;;;4.85;0.93;;;7.30;99.90;;;;;;5016720;28;20192;-80
2023/12/16 03:59:16;;;;;;;0.70;0.57;;;7.30;99.90;;;;;;5018248;28;20211;-81
2023/12/16 04:01:45;;;;;;;1.20;1.13;;;7.40;99.90;;;;;;5017820;28;20193;-80
2023/12/16 04:04:11;;;;;;;0.50;0.43;;;7.40;99.90;;;;;;5017458;28;20212;-80
2023/12/16 04:06:40;;;;;;;11.85;1.15;;;7.30;99.90;;;;;;5007767;28;20197;-80
2023/12/16 04:09:07;;;;;;;0.50;0.50;;;7.40;99.90;;;;;;4998490;28;20800;-80
2023/12/16 04:11:35;;;;;;;4.25;3.75;;;7.40;99.90;;;;;;4997990;28;20221;-80
2023/12/16 04:14:02;;;;;;;0.75;0.75;;;7.40;99.90;;;;;;4998107;28;20248;-81
2023/12/16 04:16:29;;;;;;;0.60;0.60;;;7.40;99.90;;;;;;4997618;28;20210;-79
2023/12/16 04:18:55;;;;;;;0.60;0.60;;;7.40;99.90;;;;;;4997638;28;20295;-80
2023/12/16 04:21:22;;;;;;;6.93;1.95;;;7.40;99.90;;;;;;4998309;28;20196;-79
2023/12/16 04:23:50;;;;;;;0.60;0.60;;;7.40;99.90;;;;;;4997901;28;20592;-80
2023/12/16 04:26:17;;;;;;;3.38;0.85;;;7.40;99.90;;;;;;4997836;28;20197;-80
2023/12/16 04:28:44;;;;;;;0.77;0.73;;;7.40;99.90;;;;;;5016075;28;20196;-80
2023/12/16 04:31:14;;;;;;;9.13;2.75;;;7.50;99.90;;;;;;5016978;28;20304;-81
2023/12/16 04:33:41;;;;;;;0.60;0.55;;;7.40;99.90;;;;;;5017097;28;20220;-80
2023/12/16 04:36:13;;;;;;;0.90;0.90;;;7.40;99.90;;;;;;5016901;28;20195;-81
2023/12/16 04:38:40;;;;;;;7.28;1.17;;;7.40;99.90;;;;;;5017511;28;20256;-80
2023/12/16 04:41:10;;;;;;;4.40;0.90;;;7.30;99.90;;;;;;5012569;28;20189;-81
2023/12/16 04:43:37;;;;;;;2.65;1.30;;;7.20;99.90;;;;;;4998020;28;20296;-80
2023/12/16 04:46:04;;;;;;;2.25;2.15;;;7.20;99.90;;;;;;4997679;28;20280;-80
2023/12/16 04:48:31;;;;;;;1.52;1.08;;;7.20;99.90;;;;;;4997840;28;20192;-79
2023/12/16 04:51:04;;;;;;;0.50;0.50;;;7.20;99.90;;;;;;4989792;28;20219;-80
2023/12/16 04:53:31;;;;;;;6.72;1.88;;;7.30;99.90;;;;;;4997678;28;20217;-79
2023/12/16 04:55:58;;;;;;;1.13;1.02;;;7.30;99.90;;;;;;4989080;28;20193;-79
2023/12/16 04:58:26;;;;;;;0.50;0.45;;;7.40;99.90;;;;;;5001014;28;20201;-78
2023/12/16 05:00:53;;;;;;;1.58;0.95;;;7.40;99.90;;;;;;5034086;28;20181;-79
2023/12/16 05:03:20;;;;;;;1.02;0.80;;;7.40;99.90;;;;;;5034994;28;20251;-79
2023/12/16 05:05:47;;;;;;;0.50;0.50;;;7.40;99.90;;;;;;5034546;28;20252;-80
2023/12/16 05:08:14;;;;;;;0.93;0.93;;;7.40;99.90;;;;;;5035197;28;20190;-80
2023/12/16 05:10:41;;;;;;;2.75;1.52;;;7.50;99.90;;;;;;5034362;28;20276;-78
2023/12/16 05:13:09;;;;;;;0.50;0.40;;;7.40;99.90;;;;;;5034932;28;20240;-79
2023/12/16 05:15:39;;;;;;;4.05;3.35;;;7.40;99.90;;;;;;5034330;28;20177;-79
2023/12/16 05:18:06;;;;;;;5.07;2.65;;;7.40;99.90;;;;;;5034963;28;20230;-80
2023/12/16 05:20:33;;;;;;;0.60;0.60;;;7.40;99.90;;;;;;5034694;28;20213;-78
2023/12/16 05:23:00;;;;;;;2.55;1.55;;;7.40;99.90;;;;;;5014416;28;20288;-78
2023/12/16 05:25:28;;;;;;;0.98;0.88;;;7.40;99.90;;;;;;5010661;28;20208;-80
2023/12/16 05:27:54;;;;;;;1.45;0.75;;;7.40;99.90;;;;;;4996488;28;20202;-80
2023/12/16 05:30:21;;;;;;;0.60;0.50;;;7.40;99.90;;;;;;4996448;28;20197;-80
2023/12/16 05:32:49;;;;;;;1.15;1.10;;;7.40;99.90;;;;;;4996022;28;20216;-80
2023/12/16 05:35:18;;;;;;;3.65;1.98;;;7.40;99.90;;;;;;4996059;28;20199;-80
2023/12/16 05:37:45;;;;;;;0.50;0.40;;;7.40;99.90;;;;;;4995763;28;20304;-80
2023/12/16 05:40:12;;;;;;;1.50;1.40;;;7.40;99.90;;;;;;4995588;28;20534;-80
2023/12/16 05:42:40;;;;;;;1.55;1.30;;;7.50;99.90;;;;;;4995791;28;20604;-80
2023/12/16 05:45:07;;;;;;;13.68;1.50;;;7.50;99.90;;;;;;4995520;28;20204;-80
2023/12/16 05:47:34;;;;;;;1.58;1.02;;;7.50;99.90;;;;;;4996057;28;20197;-80
2023/12/16 05:50:03;;;;;;;0.90;0.65;;;7.50;99.90;;;;;;4995418;28;20699;-80
2023/12/16 05:52:30;;;;;;;1.02;0.88;;;7.50;99.90;;;;;;4995186;28;20688;-80
2023/12/16 05:54:57;;;;;;;0.60;0.60;;;7.50;99.90;;;;;;4995472;28;20201;-80
2023/12/16 05:57:24;;;;;;;1.02;0.60;;;7.50;99.90;;;;;;4995276;28;20604;-79
2023/12/16 05:59:50;;;;;;;1.63;1.52;;;7.50;99.90;;;;;;4995337;28;20203;-79
2023/12/16 06:02:17;;;;;;;2.55;0.80;;;7.50;99.90;;;;;;4996185;28;20192;-79
2023/12/16 06:04:45;;;;;;;1.88;0.82;;;7.50;99.90;;;;;;4994782;28;20729;-80
2023/12/16 06:07:13;;;;;;;0.60;0.60;;;7.50;99.90;;;;;;4995445;28;20236;-80
2023/12/16 06:09:40;;;;;;;1.60;0.90;;;7.50;99.90;;;;;;4995913;28;20197;-79
2023/12/16 06:12:07;;;;;;;1.50;0.70;;;7.50;99.90;;;;;;5007463;28;20212;-80
2023/12/16 06:14:34;;;;;;;4.05;1.77;;;7.50;99.90;;;;;;5014299;28;20303;-80
2023/12/16 06:17:01;;;;;;;6.28;2.15;;;7.50;99.90;;;;;;5015201;28;20216;-80
2023/12/16 06:19:28;;;;;;;0.60;0.60;;;7.50;99.90;;;;;;5014834;28;20279;-79
2023/12/16 06:21:55;;;;;;;0.50;0.45;;;7.50;99.90;;;;;;5014557;28;20188;-80
2023/12/16 06:24:23;;;;;;;0.50;0.40;;;7.50;99.90;;;;;;5014711;28;20282;-80
2023/12/16 06:26:50;;;;;;;1.40;0.98;;;7.50;99.90;;;;;;5014626;28;20197;-80
2023/12/16 06:29:16;;;;;;;2.35;1.65;;;7.50;99.90;;;;;;5014910;28;20197;-80
2023/12/16 06:31:43;;;;;;;2.60;1.50;;;7.50;99.90;;;;;;5014156;28;20216;-80
2023/12/16 06:34:10;;;;;;;8.90;1.33;;;7.50;99.90;;;;;;4994395;28;20212;-80
2023/12/16 06:36:37;;;;;;;0.70;0.50;;;7.50;99.90;;;;;;4994622;28;20295;-80
2023/12/16 06:39:04;;;;;;;1.33;1.23;;;7.50;99.90;;;;;;4995225;28;20197;-80
2023/12/16 06:41:32;;;;;;;0.50;0.50;;;7.50;99.90;;;;;;4994902;28;20608;-80
2023/12/16 06:43:59;;;;;;;0.60;0.50;;;7.60;99.90;;;;;;4995389;28;20221;-80
2023/12/16 06:46:26;;;;;;;0.50;0.50;;;7.60;99.90;;;;;;4994601;28;20197;-80
2023/12/16 06:48:52;;;;;;;2.97;1.15;;;7.60;99.90;;;;;;4994945;28;20199;-80
2023/12/16 06:51:19;;;;;;;0.50;0.45;;;7.60;99.90;;;;;;4995286;28;20216;-80
2023/12/16 06:53:46;;;;;;;6.18;1.77;;;7.50;99.90;;;;;;4994444;28;20217;-80
2023/12/16 06:56:13;;;;;;;0.50;0.50;;;7.50;99.90;;;;;;4994741;28;20193;-80
2023/12/16 06:58:43;;;;;;;0.75;0.70;;;7.60;99.90;;;;;;4994428;28;20207;-80
2023/12/16 07:01:11;;;;;;;8.25;1.35;;;7.60;99.90;;;;;;4998898;28;20280;-80
2023/12/16 07:03:38;;;;;;;2.90;1.90;;;7.50;99.90;;;;;;4998867;28;20213;-80
2023/12/16 07:06:06;;;;;;;1.95;1.42;;;7.60;99.90;;;;;;4998346;28;20223;-80
2023/12/16 07:08:34;;;;;;;0.50;0.40;;;7.50;99.90;;;;;;4998157;28;20276;-80
2023/12/16 07:11:03;;;;;;;0.50;0.40;;;7.50;99.90;;;;;;4998202;28;20209;-80
2023/12/16 07:13:30;;;;;;;0.80;0.80;;;7.50;99.90;;;;;;5005607;28;20216;-80
2023/12/16 07:15:58;;;;;;;1.17;1.00;;;7.50;99.90;;;;;;5017519;28;20200;-80
2023/12/16 07:18:25;;;;;;;6.30;1.50;;;7.50;99.90;;;;;;5018415;28;20206;-77
2023/12/16 07:20:52;;;;;;;1.80;1.70;;;7.40;99.90;;;;;;5017992;28;20203;-81
2023/12/16 07:23:19;;;;;;;0.50;0.50;;;7.40;99.90;;;;;;5018343;28;20228;-80
2023/12/16 07:25:46;;;;;;;1.40;0.63;;;7.40;99.90;;;;;;5017625;28;20275;-79
2023/12/16 07:28:13;;;;;;;1.10;1.10;;;7.40;99.90;;;;;;5018449;28;20211;-81
2023/12/16 07:30:39;;;;;;;0.50;0.47;;;7.40;99.90;;;;;;5017774;28;20193;-81
2023/12/16 07:33:07;;;;;;;0.70;0.70;;;7.40;99.90;;;;;;5017808;28;20592;-80
2023/12/16 07:35:35;;;;;;;1.45;1.23;;;7.40;99.90;;;;;;5018239;28;20208;-80
2023/12/16 07:38:02;;;;;;;0.90;0.65;;;7.30;99.90;;;;;;5018297;28;20286;-80
2023/12/16 07:40:29;;;;;;;0.60;0.60;;;7.30;99.90;;;;;;5018603;28;20192;-80
2023/12/16 07:42:56;;;;;;;0.50;0.40;;;7.30;99.90;;;;;;5018413;28;20300;-81
2023/12/16 07:45:23;;;;;;;1.95;1.85;;;7.20;99.90;;;;;;5018384;28;20202;-81
2023/12/16 07:47:49;;;;;;;17.00;1.60;;;7.20;99.90;;;;;;5018590;28;20210;-82
2023/12/16 07:50:20;;;;;;;0.52;0.50;;;7.20;99.90;;;;;;5018522;28;20189;-81
2023/12/16 07:52:47;;;;;;;3.45;3.15;;;7.10;99.90;;;;;;5018121;28;20730;-81
2023/12/16 07:55:14;;;;;;;0.50;0.40;;;7.10;99.90;;;;;;4990288;28;20193;-81
2023/12/16 07:57:41;;;;;;;1.40;0.60;;;7.10;99.90;;;;;;4998760;28;20197;-82
2023/12/16 08:00:10;;;;;;;3.25;1.98;;;7.10;99.90;;;;;;4998508;28;20201;-81
2023/12/16 08:02:36;;;;;;;1.60;0.85;;;7.00;99.90;;;;;;4998710;28;20217;-81
2023/12/16 08:05:04;;;;;;;2.05;0.82;;;7.00;99.90;;;;;;5000136;28;20197;-80
2023/12/16 08:07:32;;;;;;;0.60;0.60;;;7.00;99.90;;;;;;4998104;28;20208;-81
2023/12/16 08:09:59;;;;;;;2.10;1.05;;;7.00;99.90;;;;;;4998161;28;20198;-81
2023/12/16 08:12:26;;;;;;;0.98;0.63;;;7.00;99.90;;;;;;4997963;28;20227;-81
2023/12/16 08:14:52;;;;;;;1.20;1.10;;;7.10;99.90;;;;;;4998478;28;20201;-81
2023/12/16 08:17:19;;;;;;;1.02;1.02;;;7.20;99.90;;;;;;4997996;28;20580;-81
2023/12/16 08:19:47;;;;;;;0.50;0.40;;;7.20;99.90;;;;;;4998116;28;20669;-81
2023/12/16 08:22:14;;;;;;;8.57;1.63;;;7.30;99.90;;;;;;4998104;28;20193;-81
2023/12/16 08:24:42;;;;;;;0.95;0.73;;;7.30;99.90;;;;;;4997795;28;20592;-80
2023/12/16 08:27:09;;;;;;;5.05;0.65;;;7.30;99.90;;;;;;4998086;28;20269;-81
2023/12/16 08:29:36;;;;;;;8.52;1.85;;;7.40;99.90;;;;;;4998217;28;20575;-80
2023/12/16 08:32:03;;;;;;;2.00;0.90;;;7.40;99.90;;;;;;4998234;28;20584;-81
2023/12/16 08:34:31;;;;;;;2.15;1.58;;;7.40;99.90;;;;;;4998378;28;20761;-80
2023/12/16 08:36:58;;;;;;;1.60;0.93;;;7.50;99.90;;;;;;4998194;28;20197;-81
2023/12/16 08:39:25;;;;;;;1.02;0.98;;;7.60;99.90;;;;;;5002387;28;20197;-81
2023/12/16 08:41:53;;;;;;;0.65;0.65;;;7.80;99.90;;;;;;5017597;28;20197;-80
2023/12/16 08:44:20;;;;;;;2.45;1.55;;;8.10;99.90;;;;;;4989663;28;20228;-79
2023/12/16 08:46:47;;;;;;;2.30;1.83;;;8.50;99.90;;;;;;4997335;28;20284;-81
2023/12/16 08:49:14;;;;;;;4.10;2.77;;;9.00;99.90;;;;;;4997109;28;20467;-81
2023/12/16 08:51:41;;;;;;;1.23;1.13;;;9.20;99.90;;;;;;4997864;28;20445;-81
2023/12/16 08:54:07;;;;;;;0.50;0.40;;;9.50;99.90;;;;;;4997154;28;20223;-80
2023/12/16 08:56:34;;;;;;;4.53;1.80;;;9.60;99.90;;;;;;4996983;28;20441;-82
2023/12/16 08:59:03;;;;;;;0.50;0.40;;;9.60;99.90;;;;;;5006160;28;20497;-81
2023/12/16 09:01:29;;;;;;;2.67;2.40;;;9.80;99.90;;;;;;5016846;28;20481;-79
2023/12/16 09:03:56;;;;;;;0.97;0.90;;;10.00;99.90;;;;;;5016291;28;20993;-81
2023/12/16 09:06:24;;;;;;;0.90;0.90;;;9.70;99.90;;;;;;5016187;28;20454;-79
2023/12/16 09:08:51;;;;;;;4.30;1.73;;;9.30;99.90;;;;;;5016715;28;20599;-80
2023/12/16 09:11:17;;;;;;;2.40;2.20;;;9.00;99.90;;;;;;5016460;28;20454;-80
2023/12/16 09:13:45;;;;;;;5.80;1.70;;;8.70;99.90;;;;;;5015958;28;20479;-81
2023/12/16 09:16:13;;;;;;;2.78;2.67;;;8.40;99.90;;;;;;5015115;28;20439;-81
2023/12/16 09:18:40;;;;;;;7.83;1.70;;;8.20;99.90;;;;;;5015993;28;20200;-80
2023/12/16 09:21:07;;;;;;;10.90;1.43;;;8.20;99.90;;;;;;4998458;28;20796;-79
2023/12/16 09:23:35;;;;;;;0.50;0.40;;;8.20;99.90;;;;;;4995328;28;20471;-80
2023/12/16 09:26:02;;;;;;;1.20;0.98;;;8.10;99.90;;;;;;5010531;28;20472;-79
2023/12/16 09:28:29;;;;;;;1.55;0.70;;;8.10;99.90;;;;;;5010176;28;20205;-81
2023/12/16 09:30:55;;;;;;;2.30;0.80;;;8.10;99.90;;;;;;5015751;28;20295;-81
2023/12/16 09:33:23;;;;;;;0.88;0.70;;;8.20;99.90;;;;;;4990949;28;20486;-81
2023/12/16 09:35:50;;;;;;;1.35;0.88;;;8.20;99.90;;;;;;4997426;28;20710;-81
2023/12/16 09:38:17;;;;;;;2.20;2.00;;;8.30;99.90;;;;;;4997082;28;20227;-81
2023/12/16 09:40:44;;;;;;;2.25;1.10;;;8.30;99.90;;;;;;5003288;28;20583;-81
2023/12/16 09:43:16;;;;;;;0.60;0.60;;;8.40;99.90;;;;;;5015996;28;20212;-81
2023/12/16 09:45:45;;;;;;;2.05;0.70;;;8.50;99.90;;;;;;5002816;28;20679;-81
2023/12/16 09:48:13;;;;;;;21.58;3.72;;;8.50;99.90;;;;;;4996584;28;20189;-81
2023/12/16 09:50:42;;;;;;;21.43;2.00;;;8.60;99.90;;;;;;4996343;28;20195;-81
2023/12/16 09:53:09;;;;;;;1.23;1.23;;;8.70;99.90;;;;;;4995198;28;20998;-80
2023/12/16 09:55:36;;;;;;;47.90;2.47;;;8.80;99.90;;;;;;4994946;28;20436;-81
2023/12/16 09:58:04;;;;;;;3.33;1.13;;;8.90;99.90;;;;;;4995148;28;20284;-80
2023/12/16 10:00:32;;;;;;;0.70;0.50;;;9.00;99.90;;;;;;4995011;28;20536;-80
2023/12/16 10:02:59;;;;;;;2.70;0.57;;;9.20;99.90;;;;;;4995050;28;20478;-79
2023/12/16 10:05:28;;;;;;;0.57;0.57;;;9.30;99.90;;;;;;4994901;28;20441;-79
2023/12/16 10:08:01;;;;;;;4.33;1.43;;;9.30;99.90;;;;;;4994994;28;20479;-80
2023/12/16 10:10:28;;;;;;;0.60;0.60;;;9.40;99.90;;;;;;4995041;28;20939;-78
2023/12/16 10:12:55;;;;;;;1.53;0.80;;;9.50;99.90;;;;;;4994285;28;20530;-79
2023/12/16 10:15:32;;;;;;;1.47;1.37;;;9.50;99.90;;;;;;4994304;28;20447;-78
2023/12/16 10:18:02;;;;;;;1.23;0.70;;;9.50;99.90;;;;;;4994849;28;20444;-80
2023/12/16 10:20:29;;;;;;;4.33;1.40;;;9.40;99.90;;;;;;4995395;28;20439;-78
2023/12/16 10:22:56;;;;;;;3.70;1.33;;;9.20;99.90;;;;;;4994731;28;20462;-80
2023/12/16 10:25:24;;;;;;;0.60;0.50;;;9.20;99.90;;;;;;4994973;28;20795;-80
2023/12/16 10:27:58;;;;;;;10.02;1.02;;;9.20;99.90;;;;;;4996063;28;20443;-79
2023/12/16 10:30:26;;;;;;;1.47;0.90;;;9.20;99.90;;;;;;4994977;28;20192;-79
2023/12/16 10:32:55;;;;;;;0.60;0.50;;;9.20;99.90;;;;;;4994832;28;20507;-79
2023/12/16 10:35:23;;;;;;;0.80;0.80;;;9.10;99.90;;;;;;4996989;28;20444;-78
2023/12/16 10:37:50;;;;;;;0.70;0.70;;;9.10;99.90;;;;;;4998624;28;20450;-79
2023/12/16 10:40:18;;;;;;;1.23;0.70;;;9.10;99.90;;;;;;4998621;28;20831;-79
2023/12/16 10:42:46;;;;;;;5.90;2.70;;;9.20;99.90;;;;;;4998994;28;20997;-80
2023/12/16 10:45:13;;;;;;;1.97;1.13;;;9.20;99.90;;;;;;5016631;28;20453;-80
2023/12/16 10:47:41;;;;;;;0.63;0.63;;;9.10;99.90;;;;;;5018400;28;20526;-78
2023/12/16 10:50:09;;;;;;;0.50;0.47;;;9.20;99.90;;;;;;5018376;28;20462;-79
2023/12/16 10:52:40;;;;;;;5.10;0.70;;;9.30;99.90;;;;;;5018220;28;20499;-78
2023/12/16 10:55:13;;;;;;;0.50;0.50;;;9.40;99.90;;;;;;5018171;28;20443;-79
2023/12/16 10:57:48;;;;;;;2.00;1.30;;;9.40;99.90;;;;;;5018509;28;20201;-79
2023/12/16 11:00:23;;;;;;;1.23;1.23;;;9.50;99.90;;;;;;5018072;28;20439;-81
2023/12/16 11:02:57;;;;;;;4.13;1.23;;;9.50;99.90;;;;;;5018292;28;20457;-81
2023/12/16 11:05:29;;;;;;;5.43;1.00;;;9.30;99.90;;;;;;5018648;28;20435;-79
2023/12/16 11:08:01;;;;;;;1.00;1.00;;;9.20;99.90;;;;;;5018125;28;20943;-80
2023/12/16 11:10:29;;;;;;;3.33;3.03;;;9.10;99.90;;;;;;5018640;28;20495;-80
2023/12/16 11:12:58;;;;;;;1.15;1.05;;;9.10;99.90;;;;;;5017593;28;20485;-81
2023/12/16 11:15:25;;;;;;;2.43;1.50;;;9.10;99.90;;;;;;5018236;28;20231;-81
2023/12/16 11:17:57;;;;;;;0.73;0.73;;;9.10;99.90;;;;;;5018211;28;20443;-81
2023/12/16 11:20:32;;;;;;;1.27;1.17;;;9.10;99.90;;;;;;5016335;28;20442;-81
2023/12/16 11:23:00;;;;;;;0.65;0.65;;;9.10;99.90;;;;;;4999494;28;20485;-81
2023/12/16 11:25:27;;;;;;;1.95;0.80;;;9.10;99.90;;;;;;4998656;28;20202;-81
2023/12/16 11:27:58;;;;;;;0.70;0.65;;;9.10;99.90;;;;;;4998941;28;20197;-81
2023/12/16 11:30:27;;;;;;;1.65;1.23;;;9.10;99.90;;;;;;4998954;28;20583;-80
2023/12/16 11:32:55;;;;;;;4.70;1.60;;;9.00;99.90;;;;;;4998842;28;20227;-80
2023/12/16 11:35:46;;;;;;;1.97;1.80;;;9.00;99.90;;;;;;5002247;28;20440;-79
2023/12/16 11:38:42;;;;;;;1.53;1.00;;;9.00;99.90;;;;;;5033379;28;20436;-79
2023/12/16 11:41:10;;;;;;;6.57;1.37;;;9.00;99.90;;;;;;5025141;28;20435;-81
2023/12/16 11:43:54;;;;;;;26.83;1.50;;;9.00;99.90;;;;;;4995910;28;20542;-81
2023/12/16 11:46:40;;;;;;;10.30;0.77;;;9.00;99.90;;;;;;5017383;28;20993;-81
2023/12/16 11:49:10;;;;;;;0.70;0.60;;;9.00;99.90;;;;;;5018686;28;20457;-80
2023/12/16 11:51:38;;;;;;;1.00;1.00;;;9.00;99.90;;;;;;4991537;28;20475;-80
2023/12/16 11:54:06;;;;;;;3.03;2.30;;;9.00;99.90;;;;;;5000634;28;20221;-81
2023/12/16 11:56:33;;;;;;;0.50;0.50;;;9.00;99.90;;;;;;4998469;28;20436;-81
2023/12/16 11:59:02;;;;;;;1.43;0.70;;;9.00;99.90;;;;;;4998493;28;20433;-81
2023/12/16 12:01:31;;;;;;;0.90;0.68;;;9.00;99.90;;;;;;4999060;28;20445;-81
2023/12/16 12:03:58;;;;;;;0.60;0.60;;;9.10;99.90;;;;;;4999366;28;20228;-80
2023/12/16 12:06:26;;;;;;;1.60;0.90;;;9.10;99.90;;;;;;4998435;28;20199;-78
2023/12/16 12:08:53;;;;;;;0.85;0.85;;;9.10;99.90;;;;;;4999028;28;20808;-80
2023/12/16 12:11:21;;;;;;;0.53;0.53;;;9.10;99.90;;;;;;4998652;28;20288;-82
2023/12/16 12:13:47;;;;;;;1.47;1.37;;;9.20;99.90;;;;;;4998461;28;20476;-81
2023/12/16 12:16:16;;;;;;;0.60;0.50;;;9.20;99.90;;;;;;4998794;28;20464;-81
2023/12/16 12:18:42;;;;;;;3.03;1.70;;;9.20;99.90;;;;;;4998499;28;20487;-81
2023/12/16 12:21:10;;;;;;;2.45;0.82;;;9.30;99.90;;;;;;4998389;28;20516;-81
2023/12/16 12:23:38;;;;;;;3.87;2.00;;;9.20;99.90;;;;;;4998197;28;20228;-81
2023/12/16 12:26:05;;;;;;;1.60;0.93;;;9.20;99.90;;;;;;4999065;28;20448;-81
2023/12/16 12:28:32;;;;;;;0.60;0.60;;;9.20;99.90;;;;;;5001162;28;20312;-80
2023/12/16 12:31:06;;;;;;;0.95;0.95;;;9.30;99.90;;;;;;5000250;28;20875;-81
2023/12/16 12:33:35;;;;;;;0.50;0.43;;;9.30;99.90;;;;;;5005919;28;20285;-81
2023/12/16 12:36:02;;;;;;;2.40;0.87;;;9.30;99.90;;;;;;5010073;28;20252;-80
2023/12/16 12:38:30;;;;;;;1.77;1.47;;;9.20;99.90;;;;;;5018964;28;20456;-79
2023/12/16 12:40:58;;;;;;;0.60;0.50;;;9.20;99.90;;;;;;5025977;28;20444;-80
2023/12/16 12:43:29;;;;;;;0.60;0.60;;;9.20;99.90;;;;;;5011483;28;20280;-79
2023/12/16 12:46:06;;;;;;;0.50;0.43;;;9.30;99.90;;;;;;5010412;28;20435;-80
2023/12/16 12:48:34;;;;;;;1.73;1.07;;;9.30;99.90;;;;;;5020363;28;20497;-80
2023/12/16 12:51:09;;;;;;;0.50;0.40;;;9.30;99.90;;;;;;5022350;28;20443;-81
2023/12/16 12:53:36;;;;;;;4.43;1.13;;;9.30;99.90;;;;;;5019311;28;20563;-80
2023/12/16 12:56:04;;;;;;;3.53;0.90;;;9.30;99.90;;;;;;5017831;28;20499;-81
2023/12/16 12:58:32;;;;;;;0.53;0.53;;;9.30;99.90;;;;;;5012392;28;20971;-81
2023/12/16 13:01:00;;;;;;;0.80;0.80;;;9.30;99.90;;;;;;5021409;28;20439;-81